createdAt,value
2022-11-05T00:01:41.516Z,2.60
2022-11-05T00:04:30.908Z,3.10
2022-11-05T00:07:16.960Z,3.03
2022-11-05T00:09:44.863Z,3.17
2022-11-05T00:12:30.295Z,2.88
2022-11-05T00:15:15.689Z,2.80
2022-11-05T00:17:43.594Z,2.63
2022-11-05T00:20:11.442Z,2.92
2022-11-05T00:22:57.557Z,3.40
2022-11-05T00:25:25.377Z,2.55
2022-11-05T00:30:58.454Z,2.35
2022-11-05T00:33:26.300Z,2.70
2022-11-05T00:36:08.799Z,2.60
2022-11-05T00:38:49.801Z,2.72
2022-11-05T00:41:17.602Z,2.45
2022-11-05T00:44:03.193Z,2.40
2022-11-05T00:46:30.900Z,3.53
2022-11-05T00:49:17.711Z,2.70
2022-11-05T00:51:45.397Z,2.92
2022-11-05T00:54:21.360Z,2.45
2022-11-05T00:56:52.064Z,2.50
2022-11-05T00:59:21.999Z,2.97
2022-11-05T01:05:03.280Z,2.92
2022-11-05T01:07:56.035Z,2.53
2022-11-05T01:10:46.122Z,2.45
2022-11-05T01:19:22.645Z,2.67
2022-11-05T01:21:52.341Z,3.08
2022-11-05T01:24:20.129Z,2.83
2022-11-05T01:26:47.838Z,2.88
2022-11-05T01:29:15.589Z,2.33
2022-11-05T01:31:45.757Z,3.13
2022-11-05T01:34:13.534Z,2.45
2022-11-05T01:36:43.343Z,3.17
2022-11-05T01:39:11.047Z,2.53
2022-11-05T01:44:42.790Z,2.60
2022-11-05T01:47:10.581Z,3.25
2022-11-05T01:49:38.592Z,2.30
2022-11-05T01:52:06.395Z,2.42
2022-11-05T01:54:34.163Z,2.28
2022-11-05T01:57:01.877Z,2.33
2022-11-05T01:59:29.623Z,2.80
2022-11-05T02:01:57.352Z,2.28
2022-11-05T02:04:27.456Z,3.58
2022-11-05T02:06:55.156Z,2.20
2022-11-05T02:09:23.016Z,2.50
2022-11-05T02:11:50.756Z,2.47
2022-11-05T02:14:21.135Z,2.40
2022-11-05T02:16:48.920Z,2.47
2022-11-05T02:19:19.762Z,2.40
2022-11-05T02:21:47.441Z,3.85
2022-11-05T02:24:15.399Z,2.40
2022-11-05T02:26:43.077Z,2.35
2022-11-05T02:29:10.976Z,2.35
2022-11-05T02:31:44.707Z,2.05
2022-11-05T02:34:12.611Z,2.05
2022-11-05T02:36:40.348Z,2.42
2022-11-05T02:39:08.248Z,2.35
2022-11-05T02:41:35.948Z,2.25
2022-11-05T02:44:03.668Z,2.38
2022-11-05T02:46:31.390Z,2.30
2022-11-05T02:48:59.128Z,2.28
2022-11-05T02:51:26.785Z,2.35
2022-11-05T02:53:54.473Z,2.25
2022-11-05T02:56:22.201Z,2.20
2022-11-05T02:58:49.924Z,2.40
2022-11-05T03:01:17.776Z,2.25
2022-11-05T03:03:45.588Z,2.38
2022-11-05T03:06:13.372Z,2.47
2022-11-05T03:08:41.092Z,1.80
2022-11-05T03:11:08.944Z,2.20
2022-11-05T03:13:36.820Z,2.10
2022-11-05T03:16:04.527Z,2.20
2022-11-05T03:18:32.545Z,2.45
2022-11-05T03:21:00.286Z,2.20
2022-11-05T03:23:28.193Z,2.00
2022-11-05T03:25:55.890Z,2.53
2022-11-05T03:28:23.602Z,1.90
2022-11-05T03:30:51.350Z,2.03
2022-11-05T03:33:19.000Z,2.10
2022-11-05T03:35:46.685Z,2.10
2022-11-05T03:38:14.422Z,1.90
2022-11-05T03:40:42.145Z,1.95
2022-11-05T03:43:10.356Z,2.47
2022-11-05T03:45:38.190Z,2.22
2022-11-05T03:48:05.907Z,2.20
2022-11-05T03:50:38.473Z,1.90
2022-11-05T03:53:09.013Z,2.10
2022-11-05T03:55:36.898Z,1.90
2022-11-05T03:58:05.378Z,2.00
2022-11-05T04:00:33.025Z,2.05
2022-11-05T04:03:00.782Z,2.00
2022-11-05T04:05:28.583Z,2.42
2022-11-05T04:08:14.628Z,1.92
2022-11-05T04:11:00.021Z,1.98
2022-11-05T04:13:27.948Z,1.77
2022-11-05T04:16:13.452Z,1.80
2022-11-05T04:18:41.121Z,2.80
2022-11-05T04:21:26.495Z,2.17
2022-11-05T04:24:09.327Z,2.03
2022-11-05T04:26:37.030Z,2.10
2022-11-05T04:29:22.447Z,2.00
2022-11-05T04:31:50.138Z,1.85
2022-11-05T04:34:18.891Z,1.75
2022-11-05T04:36:46.616Z,1.88
2022-11-05T04:39:14.340Z,1.98
2022-11-05T04:41:42.024Z,1.85
2022-11-05T04:44:09.706Z,1.90
2022-11-05T04:46:37.373Z,1.83
2022-11-05T04:49:05.057Z,1.80
2022-11-05T04:51:32.756Z,2.08
2022-11-05T04:54:00.434Z,1.80
2022-11-05T04:56:28.135Z,2.38
2022-11-05T04:58:55.845Z,2.03
2022-11-05T05:01:23.578Z,1.83
2022-11-05T05:03:51.378Z,1.92
2022-11-05T05:06:19.339Z,2.25
2022-11-05T05:08:47.101Z,1.77
2022-11-05T05:11:14.991Z,1.83
2022-11-05T05:13:42.976Z,1.95
2022-11-05T05:16:11.252Z,2.05
2022-11-05T05:18:43.622Z,2.00
2022-11-05T05:21:31.994Z,1.70
2022-11-05T05:23:59.882Z,2.08
2022-11-05T05:26:27.833Z,1.85
2022-11-05T05:28:55.939Z,1.83
2022-11-05T05:31:23.920Z,2.10
2022-11-05T05:33:52.345Z,2.10
2022-11-05T05:36:26.758Z,2.05
2022-11-05T05:38:54.474Z,4.05
2022-11-05T05:41:22.398Z,1.98
2022-11-05T05:43:50.303Z,2.33
2022-11-05T05:46:18.255Z,1.80
2022-11-05T05:48:46.225Z,1.90
2022-11-05T05:51:14.245Z,1.80
2022-11-05T05:53:42.131Z,2.00
2022-11-05T05:56:10.199Z,3.13
2022-11-05T05:58:38.229Z,1.70
2022-11-05T06:01:06.086Z,1.83
2022-11-05T06:03:34.267Z,1.90
2022-11-05T06:06:02.404Z,1.30
2022-11-05T06:08:30.316Z,1.50
2022-11-05T06:10:58.364Z,1.40
2022-11-05T06:13:26.305Z,1.67
2022-11-05T06:15:54.087Z,1.85
2022-11-05T06:18:22.017Z,1.50
2022-11-05T06:20:50.184Z,1.30
2022-11-05T06:23:18.030Z,1.50
2022-11-05T06:25:46.032Z,1.70
2022-11-05T06:28:13.727Z,1.33
2022-11-05T06:30:41.380Z,1.65
2022-11-05T06:33:09.596Z,1.42
2022-11-05T06:35:37.673Z,1.50
2022-11-05T06:38:05.478Z,1.50
2022-11-05T06:40:33.303Z,1.92
2022-11-05T06:43:01.361Z,1.67
2022-11-05T06:45:29.335Z,1.67
2022-11-05T06:47:57.200Z,1.63
2022-11-05T06:50:25.260Z,1.92
2022-11-05T06:52:53.154Z,1.50
2022-11-05T06:55:21.026Z,1.67
2022-11-05T06:57:48.716Z,1.60
2022-11-05T07:00:16.402Z,2.10
2022-11-05T07:02:44.294Z,1.65
2022-11-05T07:05:12.203Z,2.45
2022-11-05T07:07:40.215Z,2.13
2022-11-05T07:10:08.295Z,19.95
2022-11-05T07:12:36.253Z,24.08
2022-11-05T07:15:04.201Z,23.67
2022-11-05T07:17:32.191Z,30.67
2022-11-05T07:20:00.139Z,32.00
2022-11-05T07:22:28.131Z,38.72
2022-11-05T07:24:55.831Z,26.80
2022-11-05T07:27:23.766Z,27.70
2022-11-05T07:29:51.501Z,34.88
2022-11-05T07:32:19.311Z,31.25
2022-11-05T07:34:47.233Z,32.70
2022-11-05T07:37:16.769Z,37.00
2022-11-05T07:39:44.430Z,36.58
2022-11-05T07:42:12.265Z,39.72
2022-11-05T07:44:40.212Z,45.72
2022-11-05T07:47:08.209Z,41.70
2022-11-05T07:49:36.091Z,46.22
2022-11-05T07:52:04.207Z,45.17
2022-11-05T07:54:32.310Z,45.53
2022-11-05T07:57:01.769Z,43.58
2022-11-05T07:59:29.472Z,45.85
2022-11-05T08:01:57.611Z,46.67
2022-11-05T08:04:25.408Z,42.80
2022-11-05T08:06:53.439Z,54.65
2022-11-05T08:09:21.471Z,47.47
2022-11-05T08:11:52.241Z,64.80
2022-11-05T08:14:21.071Z,66.75
2022-11-05T08:16:48.966Z,74.80
2022-11-05T08:19:16.730Z,72.85
2022-11-05T08:21:44.606Z,80.65
2022-11-05T08:24:12.427Z,73.50
2022-11-05T08:26:40.248Z,76.65
2022-11-05T08:29:08.166Z,101.60
2022-11-05T08:31:37.410Z,76.65
2022-11-05T08:34:05.440Z,82.47
2022-11-05T08:36:33.304Z,112.40
2022-11-05T08:39:01.322Z,110.60
2022-11-05T08:41:29.264Z,118.28
2022-11-05T08:43:57.368Z,116.55
2022-11-05T08:46:25.273Z,101.20
2022-11-05T08:48:53.309Z,97.70
2022-11-05T08:51:21.080Z,91.55
2022-11-05T08:53:48.940Z,90.22
2022-11-05T08:56:16.788Z,89.28
2022-11-05T08:58:44.486Z,85.40
2022-11-05T09:01:12.223Z,85.32
2022-11-05T09:03:40.045Z,77.32
2022-11-05T09:06:07.858Z,82.95
2022-11-05T09:08:35.719Z,79.05
2022-11-05T09:11:03.416Z,113.88
2022-11-05T09:13:31.164Z,78.22
2022-11-05T09:15:58.919Z,75.97
2022-11-05T09:18:26.643Z,83.40
2022-11-05T09:20:54.340Z,69.25
2022-11-05T09:23:22.124Z,76.10
2022-11-05T09:25:49.831Z,75.00
2022-11-05T09:28:18.088Z,77.47
2022-11-05T09:30:45.793Z,73.65
2022-11-05T09:33:14.043Z,68.25
2022-11-05T09:35:41.833Z,67.75
2022-11-05T09:38:09.607Z,68.45
2022-11-05T09:40:37.665Z,66.63
2022-11-05T09:43:05.361Z,64.65
2022-11-05T09:45:33.279Z,63.38
2022-11-05T09:48:00.986Z,63.22
2022-11-05T09:50:28.847Z,63.13
2022-11-05T09:52:56.588Z,56.85
2022-11-05T09:55:24.617Z,60.60
2022-11-05T09:57:52.467Z,58.20
2022-11-05T10:00:20.152Z,56.53
2022-11-05T10:02:47.884Z,58.67
2022-11-05T10:05:16.118Z,59.40
2022-11-05T10:07:43.815Z,53.40
2022-11-05T10:10:11.530Z,54.88
2022-11-05T10:12:39.267Z,59.08
2022-11-05T10:15:07.005Z,53.78
2022-11-05T10:17:39.059Z,54.05
2022-11-05T10:20:07.420Z,52.78
2022-11-05T10:22:35.268Z,52.20
2022-11-05T10:25:02.987Z,58.05
2022-11-05T10:27:30.698Z,50.67
2022-11-05T10:29:58.560Z,55.47
2022-11-05T10:32:26.278Z,54.38
2022-11-05T10:34:53.968Z,51.15
2022-11-05T10:37:21.644Z,49.97
2022-11-05T10:39:49.293Z,49.95
2022-11-05T10:42:17.020Z,47.15
2022-11-05T10:44:45.228Z,53.53
2022-11-05T10:47:13.011Z,51.45
2022-11-05T10:49:40.639Z,49.05
2022-11-05T10:52:08.403Z,50.65
2022-11-05T10:54:36.315Z,48.15
2022-11-05T10:57:03.957Z,52.47
2022-11-05T10:59:31.653Z,48.15
2022-11-05T11:01:59.469Z,49.10
2022-11-05T11:04:27.321Z,48.28
2022-11-05T11:06:55.022Z,47.70
2022-11-05T11:09:22.803Z,42.97
2022-11-05T11:11:50.562Z,46.17
2022-11-05T11:14:18.267Z,44.28
2022-11-05T11:16:46.155Z,43.50
2022-11-05T11:19:13.855Z,43.97
2022-11-05T11:21:41.753Z,44.50
2022-11-05T11:24:09.516Z,44.45
2022-11-05T11:26:37.226Z,41.95
2022-11-05T11:29:04.902Z,46.47
2022-11-05T11:31:32.734Z,40.30
2022-11-05T11:34:00.410Z,41.83
2022-11-05T11:36:28.075Z,42.65
2022-11-05T11:38:55.784Z,40.03
2022-11-05T11:41:23.476Z,41.95
2022-11-05T11:43:54.385Z,41.72
2022-11-05T11:46:22.202Z,40.55
2022-11-05T11:48:50.167Z,38.10
2022-11-05T11:51:17.854Z,39.58
2022-11-05T11:53:45.573Z,38.72
2022-11-05T11:56:13.378Z,39.47
2022-11-05T11:58:41.160Z,38.58
2022-11-05T12:01:08.839Z,35.78
2022-11-05T12:03:36.586Z,37.95
2022-11-05T12:06:04.658Z,38.70
2022-11-05T12:08:45.831Z,36.70
2022-11-05T12:11:14.224Z,36.85
2022-11-05T12:13:41.902Z,36.40
2022-11-05T12:16:09.546Z,38.78
2022-11-05T12:18:37.693Z,35.08
2022-11-05T12:21:05.495Z,37.13
2022-11-05T12:23:33.362Z,36.90
2022-11-05T12:26:01.122Z,34.42
2022-11-05T12:28:28.845Z,35.42
2022-11-05T12:30:56.541Z,36.63
2022-11-05T12:33:24.272Z,35.83
2022-11-05T12:35:57.362Z,32.08
2022-11-05T12:38:25.598Z,36.17
2022-11-05T12:40:53.267Z,33.17
2022-11-05T12:43:20.986Z,32.05
2022-11-05T12:45:48.672Z,32.08
2022-11-05T12:48:23.255Z,32.70
2022-11-05T12:50:54.590Z,32.63
2022-11-05T12:53:22.292Z,32.28
2022-11-05T12:55:49.949Z,31.15
2022-11-05T12:58:17.610Z,31.17
2022-11-05T13:00:45.305Z,29.55
2022-11-05T13:03:13.616Z,31.58
2022-11-05T13:05:44.370Z,28.25
2022-11-05T13:08:12.566Z,30.13
2022-11-05T13:10:40.234Z,26.10
2022-11-05T13:13:08.206Z,27.88
2022-11-05T13:15:36.017Z,28.98
2022-11-05T13:18:04.033Z,30.50
2022-11-05T13:20:32.019Z,28.30
2022-11-05T13:23:00.245Z,27.02
2022-11-05T13:25:35.484Z,26.33
2022-11-05T13:28:05.162Z,27.63
2022-11-05T13:30:32.827Z,25.98
2022-11-05T13:33:00.554Z,26.73
2022-11-05T13:35:28.473Z,25.95
2022-11-05T13:38:13.537Z,23.55
2022-11-05T13:40:41.374Z,24.50
2022-11-05T13:43:09.275Z,22.30
2022-11-05T13:45:37.382Z,26.67
2022-11-05T13:48:05.206Z,25.63
2022-11-05T13:50:33.181Z,23.98
2022-11-05T13:53:01.089Z,25.33
2022-11-05T13:55:28.776Z,22.27
2022-11-05T13:57:56.589Z,23.10
2022-11-05T14:00:24.619Z,23.17
2022-11-05T14:02:52.431Z,22.95
2022-11-05T14:05:20.765Z,22.92
2022-11-05T14:07:52.087Z,20.70
2022-11-05T14:10:21.104Z,26.27
2022-11-05T14:12:48.834Z,21.20
2022-11-05T14:15:17.749Z,21.83
2022-11-05T14:17:45.534Z,21.33
2022-11-05T14:20:13.610Z,22.25
2022-11-05T14:22:41.380Z,21.05
2022-11-05T14:25:09.104Z,20.90
2022-11-05T14:27:36.807Z,18.77
2022-11-05T14:30:04.562Z,23.10
2022-11-05T14:32:32.366Z,20.58
2022-11-05T14:35:04.104Z,21.92
2022-11-05T14:37:32.016Z,20.58
2022-11-05T14:39:59.687Z,19.98
2022-11-05T14:42:27.481Z,19.52
2022-11-05T14:44:55.415Z,20.60
2022-11-05T14:47:23.155Z,19.15
2022-11-05T14:49:51.054Z,20.58
2022-11-05T14:52:18.771Z,19.80
2022-11-05T14:54:47.018Z,18.83
2022-11-05T14:57:15.521Z,19.45
2022-11-05T14:59:44.996Z,18.83
2022-11-05T15:02:12.823Z,19.58
2022-11-05T15:04:42.830Z,19.05
2022-11-05T15:07:10.541Z,18.15
2022-11-05T15:09:38.219Z,17.02
2022-11-05T15:12:07.149Z,17.23
2022-11-05T15:14:34.893Z,18.08
2022-11-05T15:17:02.691Z,16.63
2022-11-05T15:19:30.376Z,18.05
2022-11-05T15:21:58.137Z,16.10
2022-11-05T15:24:28.098Z,17.00
2022-11-05T15:26:55.760Z,17.25
2022-11-05T15:29:24.899Z,16.77
2022-11-05T15:31:52.565Z,16.83
2022-11-05T15:34:20.269Z,17.45
2022-11-05T15:36:48.148Z,15.98
2022-11-05T15:39:28.989Z,15.55
2022-11-05T15:41:57.357Z,14.77
2022-11-05T15:44:26.781Z,16.30
2022-11-05T15:46:54.434Z,15.35
2022-11-05T15:49:22.064Z,16.23
2022-11-05T15:51:49.747Z,15.02
2022-11-05T15:54:29.834Z,14.35
2022-11-05T15:56:58.254Z,15.93
2022-11-05T15:59:25.978Z,14.48
2022-11-05T16:01:53.782Z,13.98
2022-11-05T16:04:21.537Z,16.40
2022-11-05T16:06:49.259Z,15.38
2022-11-05T16:09:17.057Z,14.60
2022-11-05T16:11:44.735Z,12.60
2022-11-05T16:14:12.429Z,14.05
2022-11-05T16:16:40.187Z,14.57
2022-11-05T16:19:10.889Z,14.63
2022-11-05T16:21:38.596Z,14.10
2022-11-05T16:24:06.556Z,12.90
2022-11-05T16:27:01.116Z,13.45
2022-11-05T16:29:22.034Z,12.60
2022-11-05T16:31:49.772Z,12.85
2022-11-05T16:34:17.448Z,13.85
2022-11-05T16:36:47.025Z,13.43
2022-11-05T16:39:14.774Z,13.63
2022-11-05T16:41:42.464Z,9.80
2022-11-05T16:44:10.145Z,13.63
2022-11-05T16:46:38.184Z,11.50
2022-11-05T16:49:05.903Z,12.65
2022-11-05T16:51:35.521Z,12.48
2022-11-05T16:54:03.441Z,12.77
2022-11-05T16:56:31.178Z,12.25
2022-11-05T16:58:59.026Z,12.85
2022-11-05T17:01:27.944Z,11.00
2022-11-05T17:03:55.842Z,11.77
2022-11-05T17:06:23.664Z,11.88
2022-11-05T17:08:51.385Z,10.27
2022-11-05T17:11:22.129Z,13.25
2022-11-05T17:13:49.866Z,10.32
2022-11-05T17:16:17.731Z,13.00
2022-11-05T17:18:45.652Z,9.98
2022-11-05T17:21:14.306Z,12.75
2022-11-05T17:23:41.983Z,11.45
2022-11-05T17:26:09.651Z,12.20
2022-11-05T17:28:37.733Z,13.48
2022-11-05T17:31:05.500Z,10.65
2022-11-05T17:33:33.312Z,9.68
2022-11-05T17:36:01.105Z,9.52
2022-11-05T17:41:06.765Z,8.93
2022-11-05T17:43:34.560Z,9.05
2022-11-05T17:46:04.619Z,9.82
2022-11-05T17:48:32.563Z,10.82
2022-11-05T17:51:00.264Z,8.57
2022-11-05T17:53:28.028Z,9.25
2022-11-05T17:55:55.714Z,8.57
2022-11-05T17:58:23.416Z,9.50
2022-11-05T18:00:51.113Z,9.38
2022-11-05T18:03:18.814Z,8.57
2022-11-05T18:05:46.495Z,9.00
2022-11-05T18:08:14.184Z,9.20
2022-11-05T18:10:41.907Z,9.18
2022-11-05T18:13:09.826Z,9.15
2022-11-05T18:15:41.070Z,8.18
2022-11-05T18:18:09.282Z,10.52
2022-11-05T18:20:37.221Z,7.97
2022-11-05T18:23:04.882Z,9.05
2022-11-05T18:25:32.692Z,7.90
2022-11-05T18:28:00.400Z,8.63
2022-11-05T18:30:28.208Z,8.10
2022-11-05T18:32:55.944Z,7.68
2022-11-05T18:35:23.774Z,7.45
2022-11-05T18:37:51.547Z,8.13
2022-11-05T18:40:19.240Z,8.88
2022-11-05T18:42:47.189Z,8.23
2022-11-05T18:45:14.918Z,8.52
2022-11-05T18:47:42.616Z,9.38
2022-11-05T18:50:10.558Z,8.82
2022-11-05T18:52:38.310Z,8.63
2022-11-05T18:55:06.082Z,7.65
2022-11-05T18:57:33.756Z,7.57
2022-11-05T19:00:01.687Z,8.10
2022-11-05T19:02:29.759Z,8.20
2022-11-05T19:07:45.400Z,9.02
2022-11-05T19:10:13.064Z,7.60
2022-11-05T19:12:40.861Z,9.05
2022-11-05T19:15:08.817Z,6.85
2022-11-05T19:17:36.760Z,8.65
2022-11-05T19:20:04.590Z,7.83
2022-11-05T19:22:32.303Z,8.27
2022-11-05T19:25:00.004Z,7.10
2022-11-05T19:27:30.843Z,7.60
2022-11-05T19:29:58.648Z,7.95
2022-11-05T19:32:26.769Z,6.93
2022-11-05T19:34:54.665Z,6.20
2022-11-05T19:37:22.668Z,7.28
2022-11-05T19:39:50.626Z,7.10
2022-11-05T19:42:18.432Z,7.63
2022-11-05T19:44:46.121Z,6.40
2022-11-05T19:47:13.857Z,6.90
2022-11-05T19:49:41.724Z,6.35
2022-11-05T19:52:09.588Z,7.07
2022-11-05T19:54:37.589Z,6.82
2022-11-05T19:57:06.536Z,7.13
2022-11-05T19:59:34.521Z,7.35
2022-11-05T20:02:02.636Z,6.25
2022-11-05T20:04:30.609Z,5.82
2022-11-05T20:06:58.605Z,7.72
2022-11-05T20:09:26.575Z,6.57
2022-11-05T20:11:54.881Z,6.10
2022-11-05T20:14:22.828Z,5.88
2022-11-05T20:16:53.524Z,7.75
2022-11-05T20:19:21.332Z,5.53
2022-11-05T20:21:49.013Z,6.20
2022-11-05T20:24:22.350Z,6.35
2022-11-05T20:26:51.930Z,6.28
2022-11-05T20:29:19.675Z,6.78
2022-11-05T20:31:47.552Z,7.07
2022-11-05T20:34:15.529Z,5.53
2022-11-05T20:36:43.457Z,6.10
2022-11-05T20:39:12.035Z,6.10
2022-11-05T20:41:39.791Z,6.53
2022-11-05T20:44:07.712Z,6.50
2022-11-05T20:46:35.693Z,5.50
2022-11-05T20:49:03.485Z,6.00
2022-11-05T20:51:31.152Z,6.60
2022-11-05T20:53:58.954Z,5.63
2022-11-05T20:56:26.838Z,5.18
2022-11-05T20:58:54.715Z,5.70
2022-11-05T21:01:22.664Z,6.75
2022-11-05T21:03:50.837Z,5.30
2022-11-05T21:06:18.637Z,6.47
2022-11-05T21:08:46.544Z,5.68
2022-11-05T21:11:14.361Z,5.68
2022-11-05T21:13:42.097Z,5.65
2022-11-05T21:16:12.925Z,5.38
2022-11-05T21:18:44.762Z,5.57
2022-11-05T21:21:12.522Z,5.75
2022-11-05T21:23:41.794Z,6.15
2022-11-05T21:26:09.634Z,5.20
2022-11-05T21:28:37.696Z,5.95
2022-11-05T21:31:06.761Z,6.32
2022-11-05T21:33:34.861Z,6.32
2022-11-05T21:36:02.810Z,4.85
2022-11-05T21:38:30.602Z,6.28
2022-11-05T21:40:58.274Z,5.07
2022-11-05T21:43:25.941Z,6.00
2022-11-05T21:45:53.640Z,6.60
2022-11-05T21:48:21.297Z,4.90
2022-11-05T21:51:05.919Z,6.30
2022-11-05T21:53:51.066Z,4.90
2022-11-05T21:56:36.525Z,5.32
2022-11-05T21:59:22.329Z,6.78
2022-11-05T22:01:50.163Z,5.20
2022-11-05T22:04:17.874Z,4.63
2022-11-05T22:06:45.827Z,4.93
2022-11-05T22:09:13.469Z,4.95
2022-11-05T22:11:41.130Z,5.15
2022-11-05T22:14:08.798Z,4.75
2022-11-05T22:16:36.726Z,4.72
2022-11-05T22:19:04.454Z,5.57
2022-11-05T22:21:32.234Z,5.78
2022-11-05T22:23:59.973Z,4.97
2022-11-05T22:26:27.656Z,4.68
2022-11-05T22:28:55.452Z,4.93
2022-11-05T22:31:23.122Z,4.75
2022-11-05T22:33:50.854Z,5.50
2022-11-05T22:36:18.526Z,4.57
2022-11-05T22:38:46.378Z,4.82
2022-11-05T22:41:14.078Z,4.25
2022-11-05T22:43:41.967Z,4.93
2022-11-05T22:46:09.694Z,4.78
2022-11-05T22:48:37.460Z,5.38
2022-11-05T22:51:05.253Z,4.90
2022-11-05T22:53:33.024Z,5.38
2022-11-05T22:56:01.122Z,4.38
2022-11-05T22:58:28.844Z,4.38
2022-11-05T23:00:56.619Z,4.45
2022-11-05T23:03:24.294Z,4.78
2022-11-05T23:05:51.990Z,4.55
2022-11-05T23:08:37.695Z,4.20
2022-11-05T23:11:22.769Z,4.60
2022-11-05T23:13:50.538Z,4.38
2022-11-05T23:16:36.003Z,4.15
2022-11-05T23:19:21.561Z,6.57
2022-11-05T23:22:06.764Z,4.90
2022-11-05T23:24:34.480Z,3.85
2022-11-05T23:27:02.414Z,4.25
2022-11-05T23:29:30.129Z,4.30
2022-11-05T23:32:15.418Z,4.47
2022-11-05T23:34:43.114Z,4.88
2022-11-05T23:37:28.289Z,4.55
2022-11-05T23:39:55.999Z,4.20
2022-11-05T23:42:41.182Z,4.60
2022-11-05T23:45:26.373Z,3.95
2022-11-05T23:48:11.978Z,3.92
2022-11-05T23:50:40.372Z,4.10
2022-11-05T23:53:08.143Z,4.22
2022-11-05T23:55:35.924Z,3.90
2022-11-05T23:58:03.856Z,4.00
